Time;durP1;ratioP1;P1;durP2;ratioP2;P2;SDS_P1;SDS_P2;PMS_P1;PMS_P2;Temp;Humidity;BMP_temperature;BMP_pressure;BME280_temperature;BME280_humidity;BME280_pressure;Samples;Min_cycle;Max_cycle;Signal;HPM_P1;HPM_P2
2021/09/27 00:01:04;;;;;;;;;5.00;4.00;;;;;19.47;100.00;101312.88;5020591;28;45334;-78
2021/09/27 00:03:30;;;;;;;;;8.00;7.00;;;;;19.47;100.00;101305.81;5020823;28;45462;-78
2021/09/27 00:09:17;;;;;;;;;8.00;6.50;;;;;19.45;100.00;101302.31;5020373;28;45393;-76
2021/09/27 00:11:42;;;;;;;;;6.75;6.00;;;;;19.52;100.00;101316.19;5020407;28;45314;-78
2021/09/27 00:14:07;;;;;;;;;5.00;5.00;;;;;19.52;100.00;101308.25;5020700;28;45300;-77
2021/09/27 00:16:35;;;;;;;;;7.25;7.00;;;;;19.43;100.00;101298.03;5020502;28;45501;-77
2021/09/27 00:19:01;;;;;;;;;8.75;7.75;;;;;19.49;100.00;101308.38;5020397;28;45482;-77
2021/09/27 00:21:30;;;;;;;;;6.00;6.00;;;;;19.53;100.00;101304.69;5020316;28;45207;-78
2021/09/27 00:23:56;;;;;;;;;7.00;6.50;;;;;19.52;100.00;101305.59;5020526;28;45405;-75
2021/09/27 00:26:24;;;;;;;;;7.75;7.00;;;;;19.49;100.00;101303.94;5020605;28;45341;-76
2021/09/27 00:28:49;;;;;;;;;6.00;5.00;;;;;19.47;100.00;101307.59;5020002;28;46484;-77
2021/09/27 00:31:15;;;;;;;;;6.00;6.00;;;;;19.46;100.00;101308.47;5020313;28;45254;-77
2021/09/27 00:33:42;;;;;;;;;7.25;6.75;;;;;19.44;100.00;101297.09;5020080;28;45178;-77
2021/09/27 00:39:29;;;;;;;;;7.50;7.00;;;;;19.30;100.00;101300.34;5019707;28;45739;-75
2021/09/27 00:41:54;;;;;;;;;7.50;7.00;;;;;19.27;100.00;101288.09;5019749;28;45303;-76
2021/09/27 00:44:19;;;;;;;;;7.00;7.00;;;;;19.26;100.00;101296.97;5002199;28;45296;-77
2021/09/27 00:46:45;;;;;;;;;8.25;7.00;;;;;19.23;100.00;101302.38;5020467;28;45273;-76
2021/09/27 00:49:10;;;;;;;;;8.25;7.50;;;;;19.13;100.00;101290.44;5019720;28;46084;-76
2021/09/27 00:51:40;;;;;;;;;9.75;6.50;;;;;19.15;100.00;101298.31;5019811;28;45361;-77
2021/09/27 00:54:14;;;;;;;;;6.00;6.00;;;;;19.09;100.00;101288.84;5019531;28;45421;-77
2021/09/27 00:56:47;;;;;;;;;4.75;3.50;;;;;19.06;100.00;101288.97;5019857;28;45366;-76
2021/09/27 00:59:14;;;;;;;;;5.00;5.00;;;;;18.98;100.00;101280.47;5019341;28;45437;-74
2021/09/27 01:01:41;;;;;;;;;6.00;4.75;;;;;19.01;100.00;101292.72;5019458;28;45646;-76
2021/09/27 01:04:07;;;;;;;;;5.50;5.25;;;;;18.95;100.00;101284.09;5001386;28;45435;-77
2021/09/27 01:10:15;;;;;;;;;7.75;6.50;;;;;18.91;100.00;101279.88;5019187;28;45388;-76
2021/09/27 01:12:56;;;;;;;;;8.00;7.00;;;;;18.90;100.00;101272.84;5019390;28;45349;-76
2021/09/27 01:15:42;;;;;;;;;8.00;7.00;;;;;18.90;100.00;101266.69;5018958;28;45323;-76
2021/09/27 01:18:16;;;;;;;;;8.00;7.25;;;;;18.88;100.00;101268.53;5019667;28;45345;-76
2021/09/27 01:21:07;;;;;;;;;6.25;6.00;;;;;18.90;100.00;101272.84;5019204;28;45417;-77
2021/09/27 01:23:44;;;;;;;;;7.75;7.00;;;;;18.89;100.00;101268.47;5018949;28;45833;-77
2021/09/27 01:26:29;;;;;;;;;7.00;6.00;;;;;18.89;100.00;101270.25;5001190;28;45422;-76
2021/09/27 01:29:09;;;;;;;;;7.00;7.00;;;;;18.88;100.00;101268.53;5019201;28;45373;-76
2021/09/27 01:31:56;;;;;;;;;7.00;7.00;;;;;18.88;100.00;101271.19;5018896;28;45380;-76
2021/09/27 01:37:52;;;;;;;;;6.25;6.25;;;;;18.82;100.00;101260.88;5018935;28;45401;-76
2021/09/27 01:40:25;;;;;;;;;7.50;7.00;;;;;18.83;100.00;101262.59;5019129;28;45524;-74
2021/09/27 01:43:15;;;;;;;;;6.00;5.25;;;;;18.82;100.00;101279.38;5018777;28;47103;-76
2021/09/27 01:46:08;;;;;;;;;7.50;6.75;;;;;18.78;100.00;101265.38;5018947;28;45740;-74
2021/09/27 01:49:03;;;;;;;;;7.25;6.50;;;;;18.82;100.00;101261.72;5019439;28;45380;-77
2021/09/27 01:55:00;;;;;;;;;7.00;6.00;;;;;18.81;100.00;101254.72;4957326;28;45714;-76
2021/09/27 01:57:47;;;;;;;;;7.50;7.00;;;;;18.87;100.00;101245.66;4957725;28;45372;-77
2021/09/27 02:00:22;;;;;;;;;7.50;6.75;;;;;18.89;100.00;101241.16;4957490;28;45504;-76
2021/09/27 02:03:05;;;;;;;;;8.25;7.50;;;;;18.89;100.00;101238.50;4941425;28;45515;-77
2021/09/27 02:05:40;;;;;;;;;7.75;7.75;;;;;18.86;100.00;101230.72;4957343;28;47511;-76
2021/09/27 02:08:05;;;;;;;;;7.00;6.00;;;;;18.91;100.00;101236.66;4957469;28;45552;-77
2021/09/27 02:10:50;;;;;;;;;8.00;7.50;;;;;18.91;100.00;101236.66;4956818;28;45349;-77
2021/09/27 02:13:26;;;;;;;;;7.50;7.00;;;;;18.89;100.00;101236.72;4957800;28;45341;-77
2021/09/27 02:16:15;;;;;;;;;8.50;8.00;;;;;18.90;100.00;101235.81;4957115;28;46240;-77
2021/09/27 02:18:49;;;;;;;;;6.75;6.75;;;;;18.91;100.00;101234.00;4957201;28;45507;-77
2021/09/27 02:21:21;;;;;;;;;8.50;8.50;;;;;18.90;100.00;101227.88;4957371;28;45395;-77
2021/09/27 02:23:53;;;;;;;;;7.25;5.75;;;;;18.91;100.00;101234.00;4957252;28;45398;-77
2021/09/27 02:26:19;;;;;;;;;8.50;8.00;;;;;18.90;100.00;101237.59;4956907;28;46224;-77
2021/09/27 02:28:46;;;;;;;;;8.75;8.00;;;;;18.86;100.00;101233.34;4990350;28;45559;-75
2021/09/27 02:31:39;;;;;;;;;7.75;7.00;;;;;18.87;100.00;101241.22;5017999;28;45313;-74
2021/09/27 02:34:22;;;;;;;;;7.75;7.75;;;;;18.79;100.00;101226.59;5018567;28;45309;-75
2021/09/27 02:37:01;;;;;;;;;11.00;9.00;;;;;18.78;100.00;101231.00;5018043;28;46346;-77
2021/09/27 02:39:50;;;;;;;;;7.75;7.00;;;;;18.78;100.00;101230.13;5018091;28;45438;-77
2021/09/27 02:42:30;;;;;;;;;9.75;9.00;;;;;18.78;100.00;101225.69;5018173;28;45326;-76
2021/09/27 02:44:55;;;;;;;;;8.00;7.75;;;;;18.78;100.00;101215.13;5018235;28;45354;-77
2021/09/27 02:47:30;;;;;;;;;8.75;8.25;;;;;18.70;100.00;101209.28;5017995;28;45440;-76
2021/09/27 02:53:20;;;;;;;;;9.50;7.00;;;;;18.76;100.00;101221.41;5017761;28;45495;-75
2021/09/27 02:56:22;;;;;;;;;8.00;8.00;;;;;18.72;100.00;101227.75;5018011;28;45271;-76
2021/09/27 02:58:58;;;;;;;;;11.00;7.50;;;;;18.65;100.00;101217.41;5017748;28;46288;-76
2021/09/27 03:02:01;;;;;;;;;10.00;7.00;;;;;18.66;100.00;101228.84;5017973;28;45558;-76
2021/09/27 03:04:39;;;;;;;;;12.00;9.75;;;;;18.64;100.00;101223.63;5017509;28;45454;-75
2021/09/27 03:10:48;;;;;;;;;9.00;8.00;;;;;18.63;100.00;101219.25;5017307;28;45441;-76
2021/09/27 03:13:28;;;;;;;;;8.00;7.25;;;;;18.62;100.00;101217.53;5017586;28;45540;-75
2021/09/27 03:16:12;;;;;;;;;7.50;7.50;;;;;18.61;100.00;101205.22;4999654;28;45397;-76
2021/09/27 03:19:00;;;;;;;;;9.75;8.75;;;;;18.60;100.00;101214.06;5017482;28;45589;-75
2021/09/27 03:21:43;;;;;;;;;8.25;7.75;;;;;18.61;100.00;101225.50;5016869;28;46782;-74
2021/09/27 03:24:17;;;;;;;;;7.00;7.00;;;;;18.61;100.00;101215.78;5017285;28;45539;-75
2021/09/27 03:27:06;;;;;;;;;9.25;9.25;;;;;18.61;100.00;101215.78;5017532;28;45307;-76
2021/09/27 03:29:53;;;;;;;;;9.75;9.75;;;;;18.61;100.00;101217.56;5017453;28;45503;-73
2021/09/27 03:32:28;;;;;;;;;12.25;9.25;;;;;18.59;100.00;101216.78;5016910;28;46292;-75
2021/09/27 03:38:19;;;;;;;;;9.50;8.00;;;;;18.59;100.00;101217.63;5017181;28;45223;-74
2021/09/27 03:41:08;;;;;;;;;10.50;9.00;;;;;18.58;100.00;101221.22;5017687;28;45362;-74
2021/09/27 03:43:48;;;;;;;;;9.75;9.75;;;;;18.55;100.00;101234.53;5017104;28;46659;-75
2021/09/27 03:46:28;;;;;;;;;10.00;9.25;;;;;18.56;100.00;101238.06;5017036;28;45571;-74
2021/09/27 03:49:02;;;;;;;;;7.00;5.50;;;;;18.57;100.00;101248.56;5017305;28;45361;-73
2021/09/27 03:54:58;;;;;;;;;10.75;10.00;;;;;18.50;100.00;101225.91;5019478;28;45773;-75
2021/09/27 03:57:46;;;;;;;;;8.25;6.50;;;;;18.50;100.00;101238.28;5017034;28;45638;-74
2021/09/27 04:00:20;;;;;;;;;7.75;7.75;;;;;18.51;100.00;101232.94;5017500;28;45282;-76
2021/09/27 04:02:59;;;;;;;;;10.75;9.00;;;;;18.44;100.00;101230.59;5017392;28;45440;-76
2021/09/27 04:05:52;;;;;;;;;8.00;7.50;;;;;18.44;100.00;101231.44;5017329;28;46471;-75
2021/09/27 04:08:48;;;;;;;;;10.00;8.00;;;;;18.46;100.00;101234.91;5016677;28;45298;-74
2021/09/27 04:11:50;;;;;;;;;14.75;12.00;;;;;18.44;100.00;101234.09;5017569;28;45368;-75
2021/09/27 04:14:34;;;;;;;;;9.75;9.00;;;;;18.41;100.00;101236.88;5003107;28;45503;-74
2021/09/27 04:17:10;;;;;;;;;9.00;7.50;;;;;18.39;100.00;101232.56;5016398;28;45412;-75
2021/09/27 04:19:57;;;;;;;;;7.75;7.75;;;;;18.37;100.00;101237.91;5016214;28;45303;-74
2021/09/27 04:22:35;;;;;;;;;7.00;7.00;;;;;18.33;100.00;101234.53;5016449;28;45300;-76
2021/09/27 04:25:43;;;;;;;;;7.00;5.25;;;;;18.34;100.00;101230.09;5016215;28;45437;-78
2021/09/27 04:28:30;;;;;;;;;9.00;8.00;;;;;18.40;100.00;101235.16;5015820;28;46732;-78
2021/09/27 04:31:33;;;;;;;;;8.75;7.00;;;;;18.37;100.00;101224.69;5015881;28;45498;-77
2021/09/27 04:34:17;;;;;;;;;9.50;8.50;;;;;18.37;100.00;101222.03;4938467;28;45380;-75
2021/09/27 04:40:09;;;;;;;;;8.25;7.75;;;;;18.34;100.00;101211.59;4939003;28;45383;-74
2021/09/27 04:42:56;;;;;;;;;8.25;7.50;;;;;18.31;100.00;101201.97;4938642;28;45537;-78
2021/09/27 04:45:39;;;;;;;;;8.75;7.75;;;;;18.38;100.00;101209.69;4939071;28;45329;-77
2021/09/27 04:48:36;;;;;;;;;6.50;5.75;;;;;18.39;100.00;101203.47;4939402;28;45497;-75
2021/09/27 04:51:16;;;;;;;;;7.00;7.00;;;;;18.40;100.00;101197.28;4938464;28;45392;-73
2021/09/27 04:54:26;;;;;;;;;7.75;6.75;;;;;18.34;100.00;101193.09;4938480;28;45555;-74
2021/09/27 04:57:12;;;;;;;;;7.75;6.25;;;;;18.43;100.00;101197.16;4938555;28;45441;-73
2021/09/27 04:59:55;;;;;;;;;6.50;6.25;;;;;18.42;100.00;101200.72;4938956;28;45423;-73
2021/09/27 05:02:40;;;;;;;;;8.75;8.00;;;;;18.42;100.00;101203.34;4938138;28;45516;-74
2021/09/27 05:08:41;;;;;;;;;7.00;7.00;;;;;18.43;100.00;101194.50;5019319;28;45368;-73
2021/09/27 05:11:48;;;;;;;;;6.25;6.00;;;;;18.42;100.00;101182.19;5019270;28;45388;-76
2021/09/27 05:14:41;;;;;;;;;7.75;7.00;;;;;18.45;100.00;101179.44;4938661;28;46216;-74
2021/09/27 05:17:38;;;;;;;;;6.00;6.00;;;;;18.46;100.00;101186.44;4938846;28;45361;-73
2021/09/27 05:23:36;;;;;;;;;6.25;6.00;;;;;18.39;100.00;101169.09;4862286;29;45420;-73
2021/09/27 05:26:54;;;;;;;;;6.00;5.25;;;;;18.39;100.00;101179.69;4862580;29;46815;-75
2021/09/27 05:29:33;;;;;;;;;7.50;6.50;;;;;18.33;100.00;101168.44;4851367;29;45779;-75
2021/09/27 05:32:26;;;;;;;;;7.00;6.25;;;;;18.31;100.00;101179.97;4862493;29;45392;-76
2021/09/27 05:35:13;;;;;;;;;8.00;7.00;;;;;18.36;100.00;101185.97;4862767;29;45399;-75
2021/09/27 05:37:44;;;;;;;;;7.00;7.00;;;;;18.34;100.00;101195.72;4862437;29;46303;-76
2021/09/27 05:40:27;;;;;;;;;6.00;6.00;;;;;18.33;100.00;101176.38;4862513;29;45641;-76
2021/09/27 05:43:11;;;;;;;;;7.75;7.00;;;;;18.33;100.00;101173.72;4862308;29;45329;-74
2021/09/27 05:46:06;;;;;;;;;7.75;7.00;;;;;18.36;100.00;101167.44;4861833;29;45383;-74
2021/09/27 05:48:40;;;;;;;;;6.50;6.00;;;;;18.32;100.00;101161.41;4862965;28;46224;-75
2021/09/27 05:54:39;;;;;;;;;6.75;6.75;;;;;18.37;100.00;101166.53;4937886;28;45312;-75
2021/09/27 05:57:21;;;;;;;;;8.50;6.50;;;;;18.38;100.00;101173.53;4938546;28;45372;-75
2021/09/27 05:59:52;;;;;;;;;8.00;6.25;;;;;18.38;100.00;101183.25;4990545;28;46118;-74
2021/09/27 06:02:49;;;;;;;;;7.00;6.00;;;;;18.31;100.00;101166.75;5018308;28;45385;-76
2021/09/27 06:05:49;;;;;;;;;6.50;6.00;;;;;18.40;100.00;101178.75;5018410;28;45398;-74
2021/09/27 06:11:44;;;;;;;;;6.50;6.25;;;;;18.39;100.00;101191.13;5017888;28;45325;-75
2021/09/27 06:14:14;;;;;;;;;7.00;6.00;;;;;18.34;100.00;101187.81;5017981;28;45353;-74
2021/09/27 06:17:00;;;;;;;;;8.25;6.50;;;;;18.41;100.00;101215.72;5017950;28;45672;-74
2021/09/27 06:19:46;;;;;;;;;5.75;5.75;;;;;18.46;100.00;101218.16;5018141;28;45443;-72
2021/09/27 06:22:26;;;;;;;;;6.75;4.00;;;;;18.47;100.00;101209.31;5017815;28;45540;-72
2021/09/27 06:25:09;;;;;;;;;6.00;5.50;;;;;18.47;100.00;101215.47;5017376;28;45565;-74
2021/09/27 06:27:49;;;;;;;;;8.00;7.75;;;;;18.51;100.00;101205.63;5018107;28;45384;-73
2021/09/27 06:30:23;;;;;;;;;5.50;5.25;;;;;18.52;100.00;101200.28;5018307;28;45417;-74
2021/09/27 06:33:08;;;;;;;;;7.00;6.75;;;;;18.50;100.00;101211.84;5017805;28;45312;-73
2021/09/27 06:35:37;;;;;;;;;5.50;4.00;;;;;18.53;100.00;101204.63;5017809;28;45302;-74
2021/09/27 06:38:06;;;;;;;;;5.50;5.00;;;;;18.53;100.00;101207.28;5017645;28;45227;-73
2021/09/27 06:40:33;;;;;;;;;7.75;5.75;;;;;18.55;100.00;101202.78;5018246;28;45360;-73
2021/09/27 06:42:58;;;;;;;;;5.75;4.00;;;;;18.45;100.00;101200.59;5017574;28;47010;-74
2021/09/27 06:45:24;;;;;;;;;3.00;2.50;;;;;18.55;100.00;101199.28;5017593;28;45349;-74
2021/09/27 06:47:49;;;;;;;;;5.00;4.00;;;;;18.59;100.00;101206.19;5017855;28;45274;-75
2021/09/27 06:50:16;;;;;;;;;4.25;4.00;;;;;18.60;100.00;101210.56;5017720;28;45560;-74
2021/09/27 06:52:41;;;;;;;;;5.25;5.00;;;;;18.63;100.00;101207.81;5017401;28;46265;-74
2021/09/27 06:55:08;;;;;;;;;5.00;3.50;;;;;18.58;100.00;101207.97;5016740;28;45430;-75
2021/09/27 06:57:34;;;;;;;;;4.75;4.25;;;;;18.52;100.00;101191.47;5017375;28;45408;-75
2021/09/27 06:59:59;;;;;;;;;6.00;5.50;;;;;18.52;100.00;101194.97;5017850;28;45325;-75
2021/09/27 07:02:25;;;;;;;;;5.00;4.25;;;;;18.49;100.00;101187.16;5017034;28;46056;-75
2021/09/27 07:04:51;;;;;;;;;5.00;5.00;;;;;18.49;100.00;101186.31;5017468;28;45345;-75
2021/09/27 07:07:17;;;;;;;;;5.00;5.00;;;;;18.47;100.00;101199.59;5017664;28;45357;-74
2021/09/27 07:09:42;;;;;;;;;5.75;5.75;;;;;18.46;100.00;101197.03;5017415;28;45528;-76
2021/09/27 07:12:10;;;;;;;;;6.00;5.25;;;;;18.51;100.00;101201.19;5017289;28;46303;-75
2021/09/27 07:14:35;;;;;;;;;6.50;5.75;;;;;18.41;100.00;101188.41;5016829;28;45317;-75
2021/09/27 07:17:01;;;;;;;;;6.50;5.00;;;;;18.50;100.00;101206.53;5017520;28;45314;-76
2021/09/27 07:19:26;;;;;;;;;6.75;6.00;;;;;18.47;100.00;101198.75;5017651;28;45262;-76
2021/09/27 07:21:52;;;;;;;;;6.00;5.75;;;;;18.39;100.00;101191.13;5017078;28;45510;-75
2021/09/27 07:24:17;;;;;;;;;8.00;8.00;;;;;18.34;100.00;101187.81;5016948;28;45432;-75
2021/09/27 07:26:42;;;;;;;;;7.00;5.00;;;;;18.27;100.00;101170.44;5017435;28;45311;-77
2021/09/27 07:29:08;;;;;;;;;7.25;6.75;;;;;18.29;100.00;101185.31;5017358;28;45450;-76
2021/09/27 07:31:35;;;;;;;;;6.50;6.25;;;;;18.27;100.00;101187.16;5017053;28;45602;-75
2021/09/27 07:34:03;;;;;;;;;3.00;2.50;;;;;18.24;100.00;101202.28;5017002;28;45583;-75
2021/09/27 07:36:28;;;;;;;;;9.75;6.25;;;;;18.20;100.00;101200.69;5016876;28;45248;-75
2021/09/27 07:38:54;;;;;;;;;6.00;5.75;;;;;18.10;100.00;101184.28;5017248;28;45278;-77
2021/09/27 07:41:21;;;;;;;;;6.00;6.00;;;;;18.11;100.00;101185.19;5016687;28;46973;-75
2021/09/27 07:43:46;;;;;;;;;7.25;5.75;;;;;18.13;100.00;101199.19;5016794;28;45428;-76
2021/09/27 07:46:15;;;;;;;;;7.50;7.25;;;;;18.13;100.00;101200.06;5017088;28;45322;-74
2021/09/27 07:48:40;;;;;;;;;9.50;7.50;;;;;18.13;100.00;101197.41;5016897;28;45361;-75
2021/09/27 07:51:06;;;;;;;;;5.50;4.75;;;;;18.12;100.00;101190.41;5016806;28;45602;-77
2021/09/27 07:56:53;;;;;;;;;8.75;7.00;;;;;18.16;100.00;101189.38;5016680;28;45302;-75
2021/09/27 07:59:19;;;;;;;;;6.00;5.75;;;;;18.19;100.00;101198.97;5017125;28;45339;-75
2021/09/27 08:01:44;;;;;;;;;7.50;6.50;;;;;18.09;100.00;101182.56;5016549;28;46355;-74
2021/09/27 08:04:10;;;;;;;;;7.50;5.50;;;;;18.18;100.00;101199.88;5016476;28;45456;-74
2021/09/27 08:06:38;;;;;;;;;6.25;6.00;;;;;18.13;100.00;101181.56;5016886;28;45384;-74
2021/09/27 08:09:06;;;;;;;;;6.75;5.75;;;;;18.26;100.00;101192.50;5020212;28;45267;-74
2021/09/27 08:11:33;;;;;;;;;8.25;7.75;;;;;18.25;100.00;101201.34;5019915;28;45364;-74
2021/09/27 08:13:58;;;;;;;;;6.75;6.75;;;;;18.15;100.00;101186.78;5019844;28;45363;-75
2021/09/27 08:16:23;;;;;;;;;6.50;6.25;;;;;18.24;100.00;101202.28;5020031;28;45451;-74
2021/09/27 08:18:49;;;;;;;;;7.25;6.50;;;;;18.30;100.00;101209.97;5020045;28;45495;-74
2021/09/27 08:21:18;;;;;;;;;7.00;6.00;;;;;18.31;100.00;101204.63;5019947;28;46527;-75
2021/09/27 08:27:18;;;;;;;;;7.00;6.00;;;;;18.38;100.00;101188.53;5018469;28;45516;-73
2021/09/27 08:29:44;;;;;;;;;6.00;6.00;;;;;18.50;100.00;101185.38;5019755;28;45580;-74
2021/09/27 08:32:09;;;;;;;;;7.00;6.00;;;;;18.56;100.00;101195.75;5019697;28;46209;-74
2021/09/27 08:34:35;;;;;;;;;7.25;7.00;;;;;18.58;100.00;101202.69;5019682;28;45331;-74
2021/09/27 08:37:03;;;;;;;;;6.75;6.00;;;;;18.64;100.00;101191.03;5019570;28;45399;-75
2021/09/27 08:39:29;;;;;;;;;7.25;6.00;;;;;18.70;100.00;101195.19;5019689;28;45467;-75
2021/09/27 08:42:04;;;;;;;;;7.25;7.25;;;;;18.74;100.00;101189.72;5019605;28;46013;-74
2021/09/27 08:44:44;;;;;;;;;8.00;7.75;;;;;18.79;100.00;101189.56;5019509;28;45461;-74
2021/09/27 08:47:29;;;;;;;;;6.00;6.00;;;;;18.79;100.00;101181.63;5019596;28;45273;-74
2021/09/27 08:50:00;;;;;;;;;8.00;7.00;;;;;18.82;100.00;101184.13;5019721;28;45429;-75
2021/09/27 08:52:30;;;;;;;;;8.00;7.75;;;;;18.79;100.00;101173.69;5019093;28;46452;-75
2021/09/27 08:54:57;;;;;;;;;6.50;6.25;;;;;18.83;100.00;101177.91;5019413;28;45223;-74
2021/09/27 08:57:32;;;;;;;;;5.00;5.00;;;;;18.86;100.00;101176.00;5019704;28;45286;-75
2021/09/27 09:00:07;;;;;;;;;7.75;6.75;;;;;18.88;100.00;101171.50;5019509;28;45575;-74
2021/09/27 09:03:14;;;;;;;;;6.75;5.50;;;;;18.91;100.00;101178.44;5019420;28;46365;-74
2021/09/27 09:06:03;;;;;;;;;5.00;5.00;;;;;18.98;100.00;101174.59;5018976;28;45456;-74
2021/09/27 09:09:14;;;;;;;;;6.75;6.25;;;;;19.07;100.00;101168.94;5003608;28;45352;-75
2021/09/27 09:11:48;;;;;;;;;6.25;6.25;;;;;19.14;100.00;101172.19;4938987;28;45332;-75
2021/09/27 09:14:44;;;;;;;;;1.00;0.00;;;;;19.12;100.00;101180.19;4938464;28;46268;-74
2021/09/27 09:17:41;;;;;;;;;7.25;7.00;;;;;19.09;100.00;101182.97;4938722;28;45710;-74
2021/09/27 09:20:17;;;;;;;;;7.50;7.00;;;;;19.03;100.00;101156.78;4938423;28;45392;-74
2021/09/27 09:26:08;;;;;;;;;9.00;7.00;;;;;19.25;100.00;101152.28;4938176;28;45569;-75
2021/09/27 09:28:35;;;;;;;;;6.50;5.50;;;;;19.35;100.00;101144.78;4938361;28;45313;-75
2021/09/27 09:31:12;;;;;;;;;8.00;7.50;;;;;19.45;100.00;101151.38;4938803;28;45398;-75
2021/09/27 09:33:56;;;;;;;;;6.75;6.75;;;;;19.67;100.00;101142.50;4938772;28;45309;-75
2021/09/27 09:36:26;;;;;;;;;6.75;6.00;;;;;19.81;100.00;101137.44;4938309;28;46121;-74
2021/09/27 09:42:14;;;;;;;;;8.50;6.50;;;;;20.30;100.00;101159.84;4938357;28;45298;-74
2021/09/27 09:44:43;;;;;;;;;7.75;5.75;;;;;20.42;100.00;101155.78;4938563;28;45471;-74
2021/09/27 09:47:13;;;;;;;;;6.25;6.25;;;;;20.40;100.00;101152.31;4939155;28;45393;-74
2021/09/27 09:50:04;;;;;;;;;7.00;7.00;;;;;20.43;100.00;101174.28;5018679;28;45389;-76
2021/09/27 09:52:46;;;;;;;;;7.75;6.75;;;;;20.40;100.00;101174.44;5018896;28;45351;-76
2021/09/27 09:55:38;;;;;;;;;5.00;5.00;;;;;20.40;100.00;101162.94;5000564;28;45525;-75
2021/09/27 09:58:05;;;;;;;;;5.00;5.00;;;;;20.48;100.00;101180.22;5018181;28;47489;-74
2021/09/27 10:00:54;;;;;;;;;6.00;5.00;;;;;20.47;100.00;101182.94;5018232;28;45501;-75
2021/09/27 10:03:32;;;;;;;;;4.75;4.75;;;;;20.41;100.00;101185.91;5018565;28;45285;-75
2021/09/27 10:06:36;;;;;;;;;5.00;5.00;;;;;20.36;100.00;101162.19;5018333;28;45368;-74
2021/09/27 10:09:06;;;;;;;;;5.75;4.00;;;;;20.33;100.00;101169.44;4976424;28;46941;-75
2021/09/27 10:11:37;;;;;;;;;3.25;2.00;;;;;20.30;100.00;101178.41;4976590;28;45609;-73
2021/09/27 10:14:31;;;;;;;;;5.00;4.00;;;;;20.20;100.00;101163.88;4976361;28;45459;-75
2021/09/27 10:17:25;;;;;;;;;3.00;3.00;;;;;20.19;100.00;101178.06;4976899;28;45285;-75
2021/09/27 10:20:10;;;;;;;;;3.75;3.75;;;;;19.96;100.00;101163.25;4976282;28;47026;-74
2021/09/27 10:23:31;;;;;;;;;0.00;0.00;;;;;19.95;100.00;101184.50;4976201;28;45687;-73
2021/09/27 10:26:10;;;;;;;;;5.00;4.25;;;;;19.65;100.00;101168.19;4974393;28;45477;-74
2021/09/27 10:28:38;;;;;;;;;5.00;4.75;;;;;19.55;100.00;101181.00;4956732;28;45246;-72
2021/09/27 10:31:04;;;;;;;;;3.75;3.75;;;;;19.38;100.00;101186.16;4955895;28;45377;-74
2021/09/27 10:33:38;;;;;;;;;4.00;3.75;;;;;19.23;100.00;101185.88;4956587;28;45506;-75
2021/09/27 10:36:13;;;;;;;;;1.00;1.00;;;;;19.09;100.00;101188.25;4956871;28;45455;-75
2021/09/27 10:38:52;;;;;;;;;4.75;3.00;;;;;19.10;100.00;101184.69;4957007;28;45529;-74
2021/09/27 10:41:24;;;;;;;;;3.25;3.25;;;;;19.04;100.00;101184.97;4956300;28;47486;-74
2021/09/27 10:43:54;;;;;;;;;5.75;4.75;;;;;19.00;100.00;101193.06;4956291;28;45454;-73
2021/09/27 10:46:24;;;;;;;;;7.00;5.75;;;;;19.00;100.00;101198.34;4981725;28;45335;-75
2021/09/27 10:48:53;;;;;;;;;5.00;4.75;;;;;18.95;100.00;101212.66;4980219;28;45644;-75
2021/09/27 10:51:25;;;;;;;;;5.50;5.00;;;;;18.85;100.00;101189.28;4997317;28;47104;-76
2021/09/27 10:54:01;;;;;;;;;5.50;4.50;;;;;18.85;100.00;101194.59;4997558;28;45625;-75
2021/09/27 10:56:41;;;;;;;;;5.75;5.75;;;;;18.83;100.00;101196.44;4998176;28;45366;-76
2021/09/27 10:59:12;;;;;;;;;5.00;5.00;;;;;18.84;100.00;101198.16;4997889;28;45300;-75
2021/09/27 11:01:38;;;;;;;;;5.50;5.00;;;;;18.85;100.00;101189.28;4997511;28;47376;-75
2021/09/27 11:04:09;;;;;;;;;6.00;4.50;;;;;18.88;100.00;101181.22;4997184;28;45469;-74
2021/09/27 11:06:41;;;;;;;;;5.50;5.00;;;;;18.96;100.00;101192.34;4997397;28;45371;-75
2021/09/27 11:09:13;;;;;;;;;5.25;4.25;;;;;19.02;100.00;101188.59;4997794;28;45280;-75
2021/09/27 11:11:46;;;;;;;;;5.00;4.50;;;;;19.08;100.00;101191.84;4997622;28;46637;-75
2021/09/27 11:14:21;;;;;;;;;4.00;3.25;;;;;19.08;100.00;101305.66;4997158;28;45342;-74
2021/09/27 11:16:56;;;;;;;;;0.00;0.00;;;;;18.84;100.00;101312.78;4997466;28;45382;-73
2021/09/27 11:19:44;;;;;;;;;0.00;0.00;;;;;18.57;100.00;101327.06;4997720;28;45308;-73
2021/09/27 11:25:21;;;;;;;;;0.00;0.00;;;;;17.82;100.00;101297.22;4997412;28;45399;-72
2021/09/27 11:28:04;;;;;;;;;1.00;1.00;;;;;17.84;100.00;101320.00;5013820;28;45350;-72
2021/09/27 11:30:41;;;;;;;;;0.50;0.00;;;;;17.87;100.00;101319.03;5017262;28;45461;-72
2021/09/27 11:33:35;;;;;;;;;0.50;0.00;;;;;17.88;100.00;101328.69;5016940;28;46025;-71
2021/09/27 11:36:13;;;;;;;;;0.00;0.00;;;;;17.81;100.00;101335.97;5016387;28;45501;-73
2021/09/27 11:42:18;;;;;;;;;0.00;0.00;;;;;17.51;100.00;101344.91;5018800;28;45319;-73
2021/09/27 11:44:59;;;;;;;;;0.75;0.50;;;;;17.42;100.00;101349.56;5020383;28;47159;-73
2021/09/27 11:47:41;;;;;;;;;0.00;0.00;;;;;17.36;100.00;101356.81;5020500;28;45290;-72
2021/09/27 11:50:15;;;;;;;;;0.00;0.00;;;;;17.27;100.00;101363.28;5020486;28;45337;-71
2021/09/27 11:52:54;;;;;;;;;0.00;0.00;;;;;17.22;100.00;101362.56;5020899;28;45346;-72
2021/09/27 11:55:33;;;;;;;;;1.00;1.00;;;;;17.15;100.00;101350.44;5020078;28;45573;-72
2021/09/27 11:58:12;;;;;;;;;1.00;0.00;;;;;17.22;100.00;101369.63;5020087;28;45566;-72
2021/09/27 12:00:44;;;;;;;;;1.00;1.00;;;;;17.21;100.00;101381.94;5020734;28;45438;-71
2021/09/27 12:03:13;;;;;;;;;0.00;0.00;;;;;17.24;100.00;101381.00;5020553;28;45318;-72
2021/09/27 12:05:53;;;;;;;;;1.00;0.00;;;;;17.24;100.00;101389.78;5019755;28;45470;-71
2021/09/27 12:08:29;;;;;;;;;0.00;0.00;;;;;17.24;100.00;101386.25;5020185;28;45335;-71
2021/09/27 12:11:00;;;;;;;;;0.00;0.00;;;;;17.18;100.00;101382.00;5020250;28;45390;-71
2021/09/27 12:13:45;;;;;;;;;0.00;0.00;;;;;17.12;100.00;101387.50;5020118;28;45286;-72
2021/09/27 12:16:20;;;;;;;;;0.00;0.00;;;;;17.21;100.00;101408.34;5019495;28;45316;-71
2021/09/27 12:18:53;;;;;;;;;0.50;0.00;;;;;17.24;100.00;101407.38;5019798;28;45526;-72
2021/09/27 12:21:32;;;;;;;;;0.00;0.00;;;;;17.27;100.00;101389.66;5020165;28;45353;-71
2021/09/27 12:24:05;;;;;;;;;0.00;0.00;;;;;17.37;100.00;101387.59;5020126;28;45325;-72
2021/09/27 12:26:36;;;;;;;;;0.00;0.00;;;;;17.54;100.00;101398.47;5019552;28;46337;-71
2021/09/27 12:29:19;;;;;;;;;0.00;0.00;;;;;17.68;100.00;101398.94;5019898;28;45299;-72
2021/09/27 12:31:58;;;;;;;;;1.25;0.25;;;;;17.91;100.00;101386.72;5019929;28;45344;-71
2021/09/27 12:34:33;;;;;;;;;1.00;0.00;;;;;18.21;100.00;101392.72;5019926;28;45451;-72
2021/09/27 12:36:59;;;;;;;;;0.75;0.00;;;;;18.63;100.00;101393.84;5019506;28;46358;-72
2021/09/27 12:39:28;;;;;;;;;1.00;1.00;;;;;18.98;100.00;101384.53;5019892;28;45432;-73
2021/09/27 12:41:57;;;;;;;;;1.25;0.00;;;;;19.36;100.00;101402.50;5019461;28;45461;-74
2021/09/27 12:44:27;;;;;;;;;2.25;0.00;;;;;19.92;100.00;101402.00;5019911;28;45428;-73
2021/09/27 12:46:55;;;;;;;;;0.50;0.00;;;;;21.32;100.00;101393.84;5019539;28;47552;-71
2021/09/27 12:49:51;;;;;;;;;0.50;0.00;;;;;22.46;100.00;101388.94;5019543;28;45609;-72
2021/09/27 12:52:34;;;;;;;;;1.25;1.25;;;;;24.52;100.00;101385.09;5019563;28;45322;-72
2021/09/27 12:55:04;;;;;;;;;0.00;0.00;;;;;26.81;100.00;101384.81;5019239;28;45457;-75
2021/09/27 12:57:38;;;;;;;;;0.25;0.00;;;;;28.49;100.00;101379.31;5019397;28;45574;-73
2021/09/27 13:00:09;;;;;;;;;0.00;0.00;;;;;29.16;100.00;101381.97;5019192;28;45462;-74
2021/09/27 13:02:44;;;;;;;;;1.00;0.00;;;;;29.44;100.00;101383.25;5019190;28;45407;-74
2021/09/27 13:05:17;;;;;;;;;0.00;0.00;;;;;29.98;100.00;101383.13;5019462;28;45550;-73
2021/09/27 13:10:46;;;;;;;;;0.00;0.00;;;;;32.64;100.00;101391.25;5018881;28;45536;-73